sensor_id;sensor_type;location;lat;lon;timestamp;P1;durP1;ratioP1;P2;durP2;ratioP2
77262;SDS011;66373;52.334;4.806;2023-06-26T00:02:18;6.07;;;4.72;;
77262;SDS011;66373;52.334;4.806;2023-06-26T00:04:51;5.75;;;4.93;;
77262;SDS011;66373;52.334;4.806;2023-06-26T00:07:19;5.55;;;4.90;;
77262;SDS011;66373;52.334;4.806;2023-06-26T00:09:46;6.47;;;5.20;;
77262;SDS011;66373;52.334;4.806;2023-06-26T00:12:13;6.05;;;4.70;;
77262;SDS011;66373;52.334;4.806;2023-06-26T00:14:40;5.63;;;5.13;;
77262;SDS011;66373;52.334;4.806;2023-06-26T00:17:08;5.25;;;4.75;;
77262;SDS011;66373;52.334;4.806;2023-06-26T00:19:36;5.45;;;4.50;;
77262;SDS011;66373;52.334;4.806;2023-06-26T00:22:03;9.40;;;5.22;;
77262;SDS011;66373;52.334;4.806;2023-06-26T00:24:30;7.55;;;5.25;;
77262;SDS011;66373;52.334;4.806;2023-06-26T00:26:57;5.30;;;4.78;;
77262;SDS011;66373;52.334;4.806;2023-06-26T00:29:25;5.93;;;4.63;;
77262;SDS011;66373;52.334;4.806;2023-06-26T00:31:52;10.27;;;4.90;;
77262;SDS011;66373;52.334;4.806;2023-06-26T00:34:22;8.52;;;5.18;;
77262;SDS011;66373;52.334;4.806;2023-06-26T00:36:49;6.80;;;5.10;;
77262;SDS011;66373;52.334;4.806;2023-06-26T00:39:16;6.22;;;4.85;;
77262;SDS011;66373;52.334;4.806;2023-06-26T00:41:43;5.95;;;5.35;;
77262;SDS011;66373;52.334;4.806;2023-06-26T00:44:10;6.18;;;5.15;;
77262;SDS011;66373;52.334;4.806;2023-06-26T00:46:37;6.60;;;4.80;;
77262;SDS011;66373;52.334;4.806;2023-06-26T00:49:04;7.35;;;5.25;;
77262;SDS011;66373;52.334;4.806;2023-06-26T00:51:33;7.88;;;4.95;;
77262;SDS011;66373;52.334;4.806;2023-06-26T00:54:02;7.72;;;4.80;;
77262;SDS011;66373;52.334;4.806;2023-06-26T00:56:29;7.63;;;4.57;;
77262;SDS011;66373;52.334;4.806;2023-06-26T00:58:57;9.27;;;5.22;;
77262;SDS011;66373;52.334;4.806;2023-06-26T01:01:25;6.70;;;5.10;;
77262;SDS011;66373;52.334;4.806;2023-06-26T01:03:53;6.45;;;4.97;;
77262;SDS011;66373;52.334;4.806;2023-06-26T01:06:20;6.18;;;4.97;;
77262;SDS011;66373;52.334;4.806;2023-06-26T01:08:51;8.13;;;4.70;;
77262;SDS011;66373;52.334;4.806;2023-06-26T01:11:18;6.20;;;4.55;;
77262;SDS011;66373;52.334;4.806;2023-06-26T01:13:46;7.97;;;5.05;;
77262;SDS011;66373;52.334;4.806;2023-06-26T01:16:13;6.22;;;5.05;;
77262;SDS011;66373;52.334;4.806;2023-06-26T01:18:45;6.05;;;4.53;;
77262;SDS011;66373;52.334;4.806;2023-06-26T01:21:14;10.45;;;4.93;;
77262;SDS011;66373;52.334;4.806;2023-06-26T01:23:46;7.65;;;4.82;;
77262;SDS011;66373;52.334;4.806;2023-06-26T01:26:28;6.85;;;4.90;;
77262;SDS011;66373;52.334;4.806;2023-06-26T01:28:56;8.95;;;5.70;;
77262;SDS011;66373;52.334;4.806;2023-06-26T01:31:26;7.57;;;4.85;;
77262;SDS011;66373;52.334;4.806;2023-06-26T01:33:55;13.45;;;5.20;;
77262;SDS011;66373;52.334;4.806;2023-06-26T01:36:24;10.45;;;5.00;;
77262;SDS011;66373;52.334;4.806;2023-06-26T01:38:51;7.30;;;5.05;;
77262;SDS011;66373;52.334;4.806;2023-06-26T01:41:18;8.27;;;4.78;;
77262;SDS011;66373;52.334;4.806;2023-06-26T01:44:02;8.13;;;4.53;;
77262;SDS011;66373;52.334;4.806;2023-06-26T01:46:42;9.75;;;5.05;;
77262;SDS011;66373;52.334;4.806;2023-06-26T01:49:21;9.80;;;5.40;;
77262;SDS011;66373;52.334;4.806;2023-06-26T01:51:58;6.93;;;5.00;;
77262;SDS011;66373;52.334;4.806;2023-06-26T01:54:32;9.20;;;5.07;;
77262;SDS011;66373;52.334;4.806;2023-06-26T01:57:04;10.57;;;5.03;;
77262;SDS011;66373;52.334;4.806;2023-06-26T01:59:35;9.55;;;4.80;;
77262;SDS011;66373;52.334;4.806;2023-06-26T02:04:34;12.63;;;5.25;;
77262;SDS011;66373;52.334;4.806;2023-06-26T02:07:01;8.10;;;4.35;;
77262;SDS011;66373;52.334;4.806;2023-06-26T02:09:31;9.80;;;4.72;;
77262;SDS011;66373;52.334;4.806;2023-06-26T02:11:58;12.55;;;5.90;;
77262;SDS011;66373;52.334;4.806;2023-06-26T02:14:25;10.05;;;4.95;;
77262;SDS011;66373;52.334;4.806;2023-06-26T02:16:54;10.65;;;4.80;;
77262;SDS011;66373;52.334;4.806;2023-06-26T02:19:21;12.98;;;5.13;;
77262;SDS011;66373;52.334;4.806;2023-06-26T02:21:48;13.98;;;4.93;;
77262;SDS011;66373;52.334;4.806;2023-06-26T02:24:15;10.15;;;4.50;;
77262;SDS011;66373;52.334;4.806;2023-06-26T02:26:42;16.38;;;5.55;;
77262;SDS011;66373;52.334;4.806;2023-06-26T02:29:11;15.13;;;4.93;;
77262;SDS011;66373;52.334;4.806;2023-06-26T02:31:41;13.10;;;5.28;;
77262;SDS011;66373;52.334;4.806;2023-06-26T02:34:09;16.52;;;5.60;;
77262;SDS011;66373;52.334;4.806;2023-06-26T02:36:36;14.93;;;5.60;;
77262;SDS011;66373;52.334;4.806;2023-06-26T02:39:04;12.48;;;5.50;;
77262;SDS011;66373;52.334;4.806;2023-06-26T02:41:32;12.32;;;5.00;;
77262;SDS011;66373;52.334;4.806;2023-06-26T02:43:59;13.30;;;5.10;;
77262;SDS011;66373;52.334;4.806;2023-06-26T02:46:27;17.15;;;6.00;;
77262;SDS011;66373;52.334;4.806;2023-06-26T02:48:55;13.57;;;5.45;;
77262;SDS011;66373;52.334;4.806;2023-06-26T02:51:24;12.00;;;5.18;;
77262;SDS011;66373;52.334;4.806;2023-06-26T02:53:53;13.18;;;4.88;;
77262;SDS011;66373;52.334;4.806;2023-06-26T02:56:20;14.45;;;5.18;;
77262;SDS011;66373;52.334;4.806;2023-06-26T02:58:47;14.02;;;5.40;;
77262;SDS011;66373;52.334;4.806;2023-06-26T03:01:14;10.75;;;5.40;;
77262;SDS011;66373;52.334;4.806;2023-06-26T03:03:42;11.98;;;5.20;;
77262;SDS011;66373;52.334;4.806;2023-06-26T03:06:14;15.57;;;5.78;;
77262;SDS011;66373;52.334;4.806;2023-06-26T03:08:43;13.20;;;5.47;;
77262;SDS011;66373;52.334;4.806;2023-06-26T03:11:11;17.05;;;6.00;;
77262;SDS011;66373;52.334;4.806;2023-06-26T03:13:40;15.35;;;5.50;;
77262;SDS011;66373;52.334;4.806;2023-06-26T03:16:07;11.32;;;5.53;;
77262;SDS011;66373;52.334;4.806;2023-06-26T03:18:34;14.23;;;5.13;;
77262;SDS011;66373;52.334;4.806;2023-06-26T03:21:01;16.13;;;5.57;;
77262;SDS011;66373;52.334;4.806;2023-06-26T03:23:29;12.32;;;5.03;;
77262;SDS011;66373;52.334;4.806;2023-06-26T03:25:57;10.55;;;4.93;;
77262;SDS011;66373;52.334;4.806;2023-06-26T03:28:33;9.82;;;5.10;;
77262;SDS011;66373;52.334;4.806;2023-06-26T03:31:01;10.65;;;4.47;;
77262;SDS011;66373;52.334;4.806;2023-06-26T03:33:28;12.45;;;5.30;;
77262;SDS011;66373;52.334;4.806;2023-06-26T03:35:56;13.68;;;5.55;;
77262;SDS011;66373;52.334;4.806;2023-06-26T03:38:24;12.27;;;4.88;;
77262;SDS011;66373;52.334;4.806;2023-06-26T03:40:55;9.48;;;4.53;;
77262;SDS011;66373;52.334;4.806;2023-06-26T03:43:24;9.73;;;4.20;;
77262;SDS011;66373;52.334;4.806;2023-06-26T03:46:09;12.75;;;4.88;;
77262;SDS011;66373;52.334;4.806;2023-06-26T03:48:36;9.25;;;4.13;;
77262;SDS011;66373;52.334;4.806;2023-06-26T03:51:04;9.45;;;4.43;;
77262;SDS011;66373;52.334;4.806;2023-06-26T03:53:32;9.63;;;4.13;;
77262;SDS011;66373;52.334;4.806;2023-06-26T03:56:00;10.50;;;4.00;;
77262;SDS011;66373;52.334;4.806;2023-06-26T03:58:28;9.40;;;4.47;;
77262;SDS011;66373;52.334;4.806;2023-06-26T04:00:55;10.18;;;4.45;;
77262;SDS011;66373;52.334;4.806;2023-06-26T04:03:23;11.75;;;4.03;;
77262;SDS011;66373;52.334;4.806;2023-06-26T04:05:50;9.38;;;4.45;;
77262;SDS011;66373;52.334;4.806;2023-06-26T04:08:17;6.35;;;4.03;;
77262;SDS011;66373;52.334;4.806;2023-06-26T04:10:49;8.68;;;4.20;;
77262;SDS011;66373;52.334;4.806;2023-06-26T04:13:19;5.30;;;3.90;;
77262;SDS011;66373;52.334;4.806;2023-06-26T04:15:46;7.57;;;4.10;;
77262;SDS011;66373;52.334;4.806;2023-06-26T04:18:13;9.05;;;4.13;;
77262;SDS011;66373;52.334;4.806;2023-06-26T04:20:41;7.20;;;3.63;;
77262;SDS011;66373;52.334;4.806;2023-06-26T04:23:29;10.50;;;4.22;;
77262;SDS011;66373;52.334;4.806;2023-06-26T04:25:56;7.85;;;3.90;;
77262;SDS011;66373;52.334;4.806;2023-06-26T04:28:25;7.55;;;3.70;;
77262;SDS011;66373;52.334;4.806;2023-06-26T04:30:52;6.38;;;3.97;;
77262;SDS011;66373;52.334;4.806;2023-06-26T04:33:20;6.13;;;3.67;;
77262;SDS011;66373;52.334;4.806;2023-06-26T04:35:47;5.70;;;3.30;;
77262;SDS011;66373;52.334;4.806;2023-06-26T04:38:15;5.75;;;3.00;;
77262;SDS011;66373;52.334;4.806;2023-06-26T04:40:42;5.97;;;4.03;;
77262;SDS011;66373;52.334;4.806;2023-06-26T04:43:09;6.97;;;3.70;;
77262;SDS011;66373;52.334;4.806;2023-06-26T04:45:40;7.60;;;3.97;;
77262;SDS011;66373;52.334;4.806;2023-06-26T04:48:09;15.85;;;3.47;;
77262;SDS011;66373;52.334;4.806;2023-06-26T04:50:36;10.00;;;3.58;;
77262;SDS011;66373;52.334;4.806;2023-06-26T04:53:03;8.52;;;3.47;;
77262;SDS011;66373;52.334;4.806;2023-06-26T04:55:31;8.15;;;3.03;;
77262;SDS011;66373;52.334;4.806;2023-06-26T04:57:58;9.68;;;3.78;;
77262;SDS011;66373;52.334;4.806;2023-06-26T05:00:25;8.90;;;3.85;;
77262;SDS011;66373;52.334;4.806;2023-06-26T05:02:53;7.00;;;3.38;;
77262;SDS011;66373;52.334;4.806;2023-06-26T05:05:26;5.85;;;3.35;;
77262;SDS011;66373;52.334;4.806;2023-06-26T05:07:54;12.32;;;3.55;;
77262;SDS011;66373;52.334;4.806;2023-06-26T05:10:22;7.30;;;3.38;;
77262;SDS011;66373;52.334;4.806;2023-06-26T05:12:49;7.60;;;3.47;;
77262;SDS011;66373;52.334;4.806;2023-06-26T05:15:16;6.93;;;3.55;;
77262;SDS011;66373;52.334;4.806;2023-06-26T05:17:44;6.20;;;3.92;;
77262;SDS011;66373;52.334;4.806;2023-06-26T05:20:12;9.95;;;4.40;;
77262;SDS011;66373;52.334;4.806;2023-06-26T05:22:39;8.50;;;3.53;;
77262;SDS011;66373;52.334;4.806;2023-06-26T05:25:07;7.63;;;3.47;;
77262;SDS011;66373;52.334;4.806;2023-06-26T05:27:36;12.30;;;3.88;;
77262;SDS011;66373;52.334;4.806;2023-06-26T05:30:04;7.35;;;3.55;;
77262;SDS011;66373;52.334;4.806;2023-06-26T05:32:37;8.07;;;3.35;;
77262;SDS011;66373;52.334;4.806;2023-06-26T05:35:06;4.22;;;3.20;;
77262;SDS011;66373;52.334;4.806;2023-06-26T05:37:35;5.40;;;3.13;;
77262;SDS011;66373;52.334;4.806;2023-06-26T05:40:03;7.50;;;3.30;;
77262;SDS011;66373;52.334;4.806;2023-06-26T05:42:31;8.90;;;3.60;;
77262;SDS011;66373;52.334;4.806;2023-06-26T05:44:58;6.18;;;3.10;;
77262;SDS011;66373;52.334;4.806;2023-06-26T05:47:26;8.25;;;3.03;;
77262;SDS011;66373;52.334;4.806;2023-06-26T05:49:53;4.82;;;2.80;;
77262;SDS011;66373;52.334;4.806;2023-06-26T05:52:20;6.55;;;3.47;;
77262;SDS011;66373;52.334;4.806;2023-06-26T05:54:50;8.25;;;3.45;;
77262;SDS011;66373;52.334;4.806;2023-06-26T05:57:17;5.57;;;3.15;;
77262;SDS011;66373;52.334;4.806;2023-06-26T05:59:45;8.80;;;3.45;;
77262;SDS011;66373;52.334;4.806;2023-06-26T06:02:13;13.43;;;3.50;;
77262;SDS011;66373;52.334;4.806;2023-06-26T06:04:40;11.85;;;3.20;;
77262;SDS011;66373;52.334;4.806;2023-06-26T06:07:08;8.50;;;3.70;;
77262;SDS011;66373;52.334;4.806;2023-06-26T06:09:35;8.07;;;3.13;;
77262;SDS011;66373;52.334;4.806;2023-06-26T06:12:04;5.60;;;3.08;;
77262;SDS011;66373;52.334;4.806;2023-06-26T06:14:33;7.93;;;3.20;;
77262;SDS011;66373;52.334;4.806;2023-06-26T06:17:00;8.55;;;3.70;;
77262;SDS011;66373;52.334;4.806;2023-06-26T06:19:27;9.85;;;3.60;;
77262;SDS011;66373;52.334;4.806;2023-06-26T06:21:54;11.10;;;3.22;;
77262;SDS011;66373;52.334;4.806;2023-06-26T06:24:21;10.95;;;3.15;;
77262;SDS011;66373;52.334;4.806;2023-06-26T06:26:48;13.23;;;3.30;;
77262;SDS011;66373;52.334;4.806;2023-06-26T06:29:17;7.75;;;3.15;;
77262;SDS011;66373;52.334;4.806;2023-06-26T06:31:45;9.18;;;3.22;;
77262;SDS011;66373;52.334;4.806;2023-06-26T06:34:12;8.90;;;3.45;;
77262;SDS011;66373;52.334;4.806;2023-06-26T06:36:39;5.32;;;3.25;;
77262;SDS011;66373;52.334;4.806;2023-06-26T06:39:06;12.55;;;2.78;;
77262;SDS011;66373;52.334;4.806;2023-06-26T06:41:33;6.35;;;2.90;;
77262;SDS011;66373;52.334;4.806;2023-06-26T06:44:04;7.88;;;3.38;;
77262;SDS011;66373;52.334;4.806;2023-06-26T06:46:33;8.45;;;3.05;;
77262;SDS011;66373;52.334;4.806;2023-06-26T06:49:00;10.20;;;3.22;;
77262;SDS011;66373;52.334;4.806;2023-06-26T06:51:28;5.45;;;2.80;;
77262;SDS011;66373;52.334;4.806;2023-06-26T06:53:56;13.20;;;3.22;;
77262;SDS011;66373;52.334;4.806;2023-06-26T06:56:23;9.95;;;3.50;;
77262;SDS011;66373;52.334;4.806;2023-06-26T06:58:50;8.40;;;2.83;;
77262;SDS011;66373;52.334;4.806;2023-06-26T07:01:17;7.40;;;3.00;;
77262;SDS011;66373;52.334;4.806;2023-06-26T07:03:49;5.35;;;2.47;;
77262;SDS011;66373;52.334;4.806;2023-06-26T07:06:16;7.50;;;2.47;;
77262;SDS011;66373;52.334;4.806;2023-06-26T07:08:43;5.70;;;2.75;;
77262;SDS011;66373;52.334;4.806;2023-06-26T07:11:10;7.25;;;2.95;;
77262;SDS011;66373;52.334;4.806;2023-06-26T07:13:37;6.93;;;2.47;;
77262;SDS011;66373;52.334;4.806;2023-06-26T07:16:04;10.00;;;2.67;;
77262;SDS011;66373;52.334;4.806;2023-06-26T07:18:31;4.75;;;2.47;;
77262;SDS011;66373;52.334;4.806;2023-06-26T07:21:00;12.32;;;2.95;;
77262;SDS011;66373;52.334;4.806;2023-06-26T07:23:27;9.50;;;2.88;;
77262;SDS011;66373;52.334;4.806;2023-06-26T07:25:54;15.07;;;2.58;;
77262;SDS011;66373;52.334;4.806;2023-06-26T07:28:21;16.40;;;2.95;;
77262;SDS011;66373;52.334;4.806;2023-06-26T07:30:49;13.30;;;3.08;;
77262;SDS011;66373;52.334;4.806;2023-06-26T07:33:16;4.75;;;2.45;;
77262;SDS011;66373;52.334;4.806;2023-06-26T07:35:44;5.47;;;1.95;;
77262;SDS011;66373;52.334;4.806;2023-06-26T07:38:12;5.95;;;2.40;;
77262;SDS011;66373;52.334;4.806;2023-06-26T07:40:39;9.25;;;2.38;;
77262;SDS011;66373;52.334;4.806;2023-06-26T07:43:06;8.60;;;3.00;;
77262;SDS011;66373;52.334;4.806;2023-06-26T07:45:33;4.63;;;2.20;;
77262;SDS011;66373;52.334;4.806;2023-06-26T07:48:00;7.15;;;2.47;;
77262;SDS011;66373;52.334;4.806;2023-06-26T07:50:28;3.85;;;2.20;;
77262;SDS011;66373;52.334;4.806;2023-06-26T07:52:55;11.00;;;2.20;;
77262;SDS011;66373;52.334;4.806;2023-06-26T07:55:23;10.73;;;2.25;;
77262;SDS011;66373;52.334;4.806;2023-06-26T07:57:51;8.57;;;2.33;;
77262;SDS011;66373;52.334;4.806;2023-06-26T08:00:20;9.45;;;2.55;;
77262;SDS011;66373;52.334;4.806;2023-06-26T08:02:51;6.28;;;2.50;;
77262;SDS011;66373;52.334;4.806;2023-06-26T08:05:18;7.25;;;2.10;;
77262;SDS011;66373;52.334;4.806;2023-06-26T08:07:45;7.18;;;3.00;;
77262;SDS011;66373;52.334;4.806;2023-06-26T08:10:12;7.30;;;2.42;;
77262;SDS011;66373;52.334;4.806;2023-06-26T08:12:41;6.10;;;2.55;;
77262;SDS011;66373;52.334;4.806;2023-06-26T08:15:10;8.20;;;2.40;;
77262;SDS011;66373;52.334;4.806;2023-06-26T08:17:38;5.93;;;2.10;;
77262;SDS011;66373;52.334;4.806;2023-06-26T08:20:05;4.57;;;2.10;;
77262;SDS011;66373;52.334;4.806;2023-06-26T08:22:34;4.68;;;2.38;;
77262;SDS011;66373;52.334;4.806;2023-06-26T08:25:02;8.55;;;2.22;;
77262;SDS011;66373;52.334;4.806;2023-06-26T08:27:29;4.85;;;2.17;;
77262;SDS011;66373;52.334;4.806;2023-06-26T08:29:59;8.32;;;2.47;;
77262;SDS011;66373;52.334;4.806;2023-06-26T08:32:26;5.43;;;2.53;;
77262;SDS011;66373;52.334;4.806;2023-06-26T08:34:53;4.47;;;2.22;;
77262;SDS011;66373;52.334;4.806;2023-06-26T08:37:22;3.20;;;2.10;;
77262;SDS011;66373;52.334;4.806;2023-06-26T08:39:49;6.78;;;2.72;;
77262;SDS011;66373;52.334;4.806;2023-06-26T08:42:16;5.13;;;2.42;;
77262;SDS011;66373;52.334;4.806;2023-06-26T08:44:43;6.80;;;2.45;;
77262;SDS011;66373;52.334;4.806;2023-06-26T08:47:11;4.63;;;2.35;;
77262;SDS011;66373;52.334;4.806;2023-06-26T08:49:43;5.50;;;2.10;;
77262;SDS011;66373;52.334;4.806;2023-06-26T08:52:16;59.65;;;6.00;;
77262;SDS011;66373;52.334;4.806;2023-06-26T08:54:46;208.88;;;19.08;;
77262;SDS011;66373;52.334;4.806;2023-06-26T08:57:19;136.68;;;11.65;;
77262;SDS011;66373;52.334;4.806;2023-06-26T08:59:49;151.57;;;13.85;;
77262;SDS011;66373;52.334;4.806;2023-06-26T09:02:18;102.85;;;9.70;;
77262;SDS011;66373;52.334;4.806;2023-06-26T09:04:47;98.85;;;10.13;;
77262;SDS011;66373;52.334;4.806;2023-06-26T09:07:14;34.75;;;5.93;;
77262;SDS011;66373;52.334;4.806;2023-06-26T09:09:41;27.98;;;4.20;;
77262;SDS011;66373;52.334;4.806;2023-06-26T09:12:09;22.83;;;3.35;;
77262;SDS011;66373;52.334;4.806;2023-06-26T09:14:36;12.30;;;2.97;;
77262;SDS011;66373;52.334;4.806;2023-06-26T09:17:04;40.97;;;4.78;;
77262;SDS011;66373;52.334;4.806;2023-06-26T09:19:32;11.18;;;2.97;;
77262;SDS011;66373;52.334;4.806;2023-06-26T09:22:04;11.55;;;2.75;;
77262;SDS011;66373;52.334;4.806;2023-06-26T09:24:37;15.13;;;3.00;;
77262;SDS011;66373;52.334;4.806;2023-06-26T09:27:04;14.43;;;3.35;;
77262;SDS011;66373;52.334;4.806;2023-06-26T09:29:31;8.43;;;2.22;;
77262;SDS011;66373;52.334;4.806;2023-06-26T09:31:59;11.43;;;2.78;;
77262;SDS011;66373;52.334;4.806;2023-06-26T09:34:30;8.30;;;2.60;;
77262;SDS011;66373;52.334;4.806;2023-06-26T09:36:59;5.60;;;2.33;;
77262;SDS011;66373;52.334;4.806;2023-06-26T09:39:29;9.30;;;2.45;;
77262;SDS011;66373;52.334;4.806;2023-06-26T09:41:57;5.95;;;2.38;;
77262;SDS011;66373;52.334;4.806;2023-06-26T09:44:25;7.90;;;2.30;;
77262;SDS011;66373;52.334;4.806;2023-06-26T09:46:52;4.10;;;2.28;;
77262;SDS011;66373;52.334;4.806;2023-06-26T09:49:23;8.43;;;2.35;;
77262;SDS011;66373;52.334;4.806;2023-06-26T09:51:51;5.43;;;2.20;;
77262;SDS011;66373;52.334;4.806;2023-06-26T09:54:22;5.18;;;1.90;;
77262;SDS011;66373;52.334;4.806;2023-06-26T09:56:52;6.40;;;2.00;;
77262;SDS011;66373;52.334;4.806;2023-06-26T09:59:22;9.45;;;2.10;;
77262;SDS011;66373;52.334;4.806;2023-06-26T10:01:50;8.05;;;2.53;;
77262;SDS011;66373;52.334;4.806;2023-06-26T10:04:26;5.07;;;2.13;;
77262;SDS011;66373;52.334;4.806;2023-06-26T10:06:54;3.85;;;2.03;;
77262;SDS011;66373;52.334;4.806;2023-06-26T10:09:24;5.22;;;1.85;;
77262;SDS011;66373;52.334;4.806;2023-06-26T10:11:54;6.18;;;2.25;;
77262;SDS011;66373;52.334;4.806;2023-06-26T10:16:55;4.70;;;2.10;;
77262;SDS011;66373;52.334;4.806;2023-06-26T10:19:25;5.10;;;1.92;;
77262;SDS011;66373;52.334;4.806;2023-06-26T10:21:54;3.65;;;1.88;;
77262;SDS011;66373;52.334;4.806;2023-06-26T10:24:23;5.70;;;2.08;;
77262;SDS011;66373;52.334;4.806;2023-06-26T10:26:55;4.93;;;1.85;;
77262;SDS011;66373;52.334;4.806;2023-06-26T10:29:25;5.38;;;1.88;;
77262;SDS011;66373;52.334;4.806;2023-06-26T10:31:55;6.13;;;2.38;;
77262;SDS011;66373;52.334;4.806;2023-06-26T10:34:25;5.70;;;2.50;;
77262;SDS011;66373;52.334;4.806;2023-06-26T10:36:58;7.80;;;2.28;;
77262;SDS011;66373;52.334;4.806;2023-06-26T10:39:28;8.38;;;2.90;;
77262;SDS011;66373;52.334;4.806;2023-06-26T10:42:15;6.85;;;2.35;;
77262;SDS011;66373;52.334;4.806;2023-06-26T10:44:42;5.60;;;2.30;;
77262;SDS011;66373;52.334;4.806;2023-06-26T10:47:10;5.05;;;2.40;;
77262;SDS011;66373;52.334;4.806;2023-06-26T10:49:38;8.30;;;2.67;;
77262;SDS011;66373;52.334;4.806;2023-06-26T10:52:13;4.35;;;2.20;;
77262;SDS011;66373;52.334;4.806;2023-06-26T10:54:42;4.90;;;1.85;;
77262;SDS011;66373;52.334;4.806;2023-06-26T10:57:10;4.78;;;2.20;;
77262;SDS011;66373;52.334;4.806;2023-06-26T10:59:39;4.57;;;2.42;;
77262;SDS011;66373;52.334;4.806;2023-06-26T11:02:06;4.07;;;2.28;;
77262;SDS011;66373;52.334;4.806;2023-06-26T11:04:37;4.53;;;1.95;;
77262;SDS011;66373;52.334;4.806;2023-06-26T11:07:16;7.65;;;2.65;;
77262;SDS011;66373;52.334;4.806;2023-06-26T11:09:56;5.40;;;2.25;;
77262;SDS011;66373;52.334;4.806;2023-06-26T11:12:34;4.20;;;1.85;;
77262;SDS011;66373;52.334;4.806;2023-06-26T11:15:04;3.53;;;1.92;;
77262;SDS011;66373;52.334;4.806;2023-06-26T11:17:34;7.00;;;2.22;;
77262;SDS011;66373;52.334;4.806;2023-06-26T11:20:02;5.03;;;2.00;;
77262;SDS011;66373;52.334;4.806;2023-06-26T11:22:31;7.15;;;1.90;;
77262;SDS011;66373;52.334;4.806;2023-06-26T11:25:03;5.57;;;2.05;;
77262;SDS011;66373;52.334;4.806;2023-06-26T11:27:32;6.78;;;2.50;;
77262;SDS011;66373;52.334;4.806;2023-06-26T11:30:04;7.38;;;2.50;;
77262;SDS011;66373;52.334;4.806;2023-06-26T11:32:33;6.10;;;2.40;;
77262;SDS011;66373;52.334;4.806;2023-06-26T11:35:00;6.88;;;2.28;;
77262;SDS011;66373;52.334;4.806;2023-06-26T11:37:29;7.30;;;3.03;;
77262;SDS011;66373;52.334;4.806;2023-06-26T11:39:57;11.00;;;2.33;;
77262;SDS011;66373;52.334;4.806;2023-06-26T11:42:26;5.55;;;2.30;;
77262;SDS011;66373;52.334;4.806;2023-06-26T11:44:56;9.18;;;2.60;;
77262;SDS011;66373;52.334;4.806;2023-06-26T11:47:23;5.85;;;2.25;;
77262;SDS011;66373;52.334;4.806;2023-06-26T11:49:51;5.70;;;2.28;;
77262;SDS011;66373;52.334;4.806;2023-06-26T11:52:18;6.88;;;1.90;;
77262;SDS011;66373;52.334;4.806;2023-06-26T11:54:45;7.82;;;2.28;;
77262;SDS011;66373;52.334;4.806;2023-06-26T11:57:15;7.28;;;2.17;;
77262;SDS011;66373;52.334;4.806;2023-06-26T11:59:46;5.95;;;1.90;;
77262;SDS011;66373;52.334;4.806;2023-06-26T12:02:16;4.68;;;2.03;;
77262;SDS011;66373;52.334;4.806;2023-06-26T12:04:46;8.43;;;2.25;;
77262;SDS011;66373;52.334;4.806;2023-06-26T12:07:14;3.70;;;2.13;;
77262;SDS011;66373;52.334;4.806;2023-06-26T12:09:43;2.92;;;2.03;;
77262;SDS011;66373;52.334;4.806;2023-06-26T12:12:13;5.82;;;2.00;;
77262;SDS011;66373;52.334;4.806;2023-06-26T12:14:43;8.02;;;2.30;;
77262;SDS011;66373;52.334;4.806;2023-06-26T12:17:13;7.63;;;2.40;;
77262;SDS011;66373;52.334;4.806;2023-06-26T12:19:42;3.03;;;1.80;;
77262;SDS011;66373;52.334;4.806;2023-06-26T12:22:13;5.57;;;2.38;;
77262;SDS011;66373;52.334;4.806;2023-06-26T12:24:40;5.15;;;2.30;;
77262;SDS011;66373;52.334;4.806;2023-06-26T12:27:08;10.48;;;2.60;;
77262;SDS011;66373;52.334;4.806;2023-06-26T12:29:37;4.88;;;2.05;;
77262;SDS011;66373;52.334;4.806;2023-06-26T12:32:08;6.75;;;2.10;;
77262;SDS011;66373;52.334;4.806;2023-06-26T12:34:37;5.50;;;1.85;;
77262;SDS011;66373;52.334;4.806;2023-06-26T12:37:07;5.85;;;1.90;;
77262;SDS011;66373;52.334;4.806;2023-06-26T12:39:45;5.07;;;2.30;;
77262;SDS011;66373;52.334;4.806;2023-06-26T12:42:13;6.05;;;1.80;;
77262;SDS011;66373;52.334;4.806;2023-06-26T12:44:42;10.13;;;2.03;;
77262;SDS011;66373;52.334;4.806;2023-06-26T12:47:09;5.65;;;2.30;;
77262;SDS011;66373;52.334;4.806;2023-06-26T12:49:40;3.83;;;2.10;;
77262;SDS011;66373;52.334;4.806;2023-06-26T12:52:09;3.22;;;1.98;;
77262;SDS011;66373;52.334;4.806;2023-06-26T12:54:40;5.45;;;1.88;;
77262;SDS011;66373;52.334;4.806;2023-06-26T12:57:08;5.45;;;2.13;;
77262;SDS011;66373;52.334;4.806;2023-06-26T12:59:39;6.53;;;2.40;;
77262;SDS011;66373;52.334;4.806;2023-06-26T13:02:06;4.43;;;2.25;;
77262;SDS011;66373;52.334;4.806;2023-06-26T13:04:37;6.38;;;1.88;;
77262;SDS011;66373;52.334;4.806;2023-06-26T13:07:11;3.15;;;1.73;;
77262;SDS011;66373;52.334;4.806;2023-06-26T13:09:39;5.05;;;1.95;;
77262;SDS011;66373;52.334;4.806;2023-06-26T13:12:06;6.65;;;2.40;;
77262;SDS011;66373;52.334;4.806;2023-06-26T13:14:34;5.40;;;1.98;;
77262;SDS011;66373;52.334;4.806;2023-06-26T13:17:04;3.40;;;1.80;;
77262;SDS011;66373;52.334;4.806;2023-06-26T13:19:32;6.75;;;1.95;;
77262;SDS011;66373;52.334;4.806;2023-06-26T13:21:59;5.13;;;1.90;;
77262;SDS011;66373;52.334;4.806;2023-06-26T13:24:28;2.38;;;1.55;;
77262;SDS011;66373;52.334;4.806;2023-06-26T13:26:55;2.95;;;1.70;;
77262;SDS011;66373;52.334;4.806;2023-06-26T13:29:23;5.00;;;1.83;;
77262;SDS011;66373;52.334;4.806;2023-06-26T13:31:50;4.18;;;1.77;;
77262;SDS011;66373;52.334;4.806;2023-06-26T13:34:21;6.88;;;1.98;;
77262;SDS011;66373;52.334;4.806;2023-06-26T13:36:49;3.90;;;1.95;;
77262;SDS011;66373;52.334;4.806;2023-06-26T13:39:16;4.78;;;1.63;;
77262;SDS011;66373;52.334;4.806;2023-06-26T13:41:45;6.35;;;1.90;;
77262;SDS011;66373;52.334;4.806;2023-06-26T13:44:12;5.68;;;2.28;;
77262;SDS011;66373;52.334;4.806;2023-06-26T13:46:40;4.13;;;2.22;;
77262;SDS011;66373;52.334;4.806;2023-06-26T13:49:07;3.70;;;1.88;;
77262;SDS011;66373;52.334;4.806;2023-06-26T13:51:34;9.15;;;2.10;;
77262;SDS011;66373;52.334;4.806;2023-06-26T13:54:01;5.40;;;2.13;;
77262;SDS011;66373;52.334;4.806;2023-06-26T13:56:28;5.10;;;2.00;;
77262;SDS011;66373;52.334;4.806;2023-06-26T13:58:57;2.90;;;1.95;;
77262;SDS011;66373;52.334;4.806;2023-06-26T14:01:24;7.55;;;2.53;;
77262;SDS011;66373;52.334;4.806;2023-06-26T14:03:52;4.43;;;1.92;;
77262;SDS011;66373;52.334;4.806;2023-06-26T14:06:19;2.40;;;1.90;;
77262;SDS011;66373;52.334;4.806;2023-06-26T14:08:46;6.05;;;2.10;;
77262;SDS011;66373;52.334;4.806;2023-06-26T14:11:13;3.40;;;1.80;;
77262;SDS011;66373;52.334;4.806;2023-06-26T14:13:41;4.22;;;1.83;;
77262;SDS011;66373;52.334;4.806;2023-06-26T14:16:09;3.95;;;1.90;;
77262;SDS011;66373;52.334;4.806;2023-06-26T14:18:37;7.50;;;2.67;;
77262;SDS011;66373;52.334;4.806;2023-06-26T14:21:05;5.18;;;2.00;;
77262;SDS011;66373;52.334;4.806;2023-06-26T14:23:32;3.45;;;1.95;;
77262;SDS011;66373;52.334;4.806;2023-06-26T14:25:59;2.53;;;1.60;;
77262;SDS011;66373;52.334;4.806;2023-06-26T14:28:26;5.03;;;2.10;;
77262;SDS011;66373;52.334;4.806;2023-06-26T14:30:53;4.85;;;2.00;;
77262;SDS011;66373;52.334;4.806;2023-06-26T14:33:22;7.32;;;2.20;;
77262;SDS011;66373;52.334;4.806;2023-06-26T14:35:49;4.13;;;2.00;;
77262;SDS011;66373;52.334;4.806;2023-06-26T14:38:16;5.30;;;2.17;;
77262;SDS011;66373;52.334;4.806;2023-06-26T14:40:43;6.70;;;2.47;;
77262;SDS011;66373;52.334;4.806;2023-06-26T14:43:10;7.50;;;2.03;;
77262;SDS011;66373;52.334;4.806;2023-06-26T14:45:37;4.40;;;2.13;;
77262;SDS011;66373;52.334;4.806;2023-06-26T14:48:05;5.47;;;2.20;;
77262;SDS011;66373;52.334;4.806;2023-06-26T14:50:34;3.47;;;2.03;;
77262;SDS011;66373;52.334;4.806;2023-06-26T14:53:01;5.60;;;2.20;;
77262;SDS011;66373;52.334;4.806;2023-06-26T14:55:31;5.60;;;1.80;;
77262;SDS011;66373;52.334;4.806;2023-06-26T14:58:00;2.97;;;1.70;;